sensor_id;sensor_type;location;lat;lon;timestamp;pressure;altitude;pressure_sealevel;temperature;humidity
63088;BME280;49173;43.164;27.786;2023-07-28T00:01:16;100333.88;;;17.26;87.40
63088;BME280;49173;43.164;27.786;2023-07-28T00:03:42;100344.63;;;17.27;87.34
63088;BME280;49173;43.164;27.786;2023-07-28T00:06:08;100339.28;;;17.26;87.21
63088;BME280;49173;43.164;27.786;2023-07-28T00:08:34;100337.22;;;17.29;87.13
63088;BME280;49173;43.164;27.786;2023-07-28T00:10:59;100330.06;;;17.28;86.92
63088;BME280;49173;43.164;27.786;2023-07-28T00:13:25;100334.00;;;17.24;87.56
63088;BME280;49173;43.164;27.786;2023-07-28T00:15:51;100335.72;;;17.25;87.85
63088;BME280;49173;43.164;27.786;2023-07-28T00:18:17;100337.06;;;17.31;87.82
63088;BME280;49173;43.164;27.786;2023-07-28T00:20:44;100336.34;;;17.29;87.71
63088;BME280;49173;43.164;27.786;2023-07-28T00:23:09;100338.34;;;17.27;87.82
63088;BME280;49173;43.164;27.786;2023-07-28T00:25:36;100335.00;;;17.23;87.61
63088;BME280;49173;43.164;27.786;2023-07-28T00:28:02;100340.16;;;17.26;87.29
63088;BME280;49173;43.164;27.786;2023-07-28T00:30:29;100336.22;;;17.30;86.94
63088;BME280;49173;43.164;27.786;2023-07-28T00:32:55;100334.88;;;17.25;86.71
63088;BME280;49173;43.164;27.786;2023-07-28T00:35:21;100345.00;;;17.23;86.42
63088;BME280;49173;43.164;27.786;2023-07-28T00:37:46;100351.41;;;17.22;86.56
63088;BME280;49173;43.164;27.786;2023-07-28T00:40:13;100352.63;;;17.18;86.38
63088;BME280;49173;43.164;27.786;2023-07-28T00:42:38;100350.44;;;17.12;85.86
63088;BME280;49173;43.164;27.786;2023-07-28T00:45:05;100349.69;;;17.10;86.23
63088;BME280;49173;43.164;27.786;2023-07-28T00:47:32;100348.97;;;17.08;86.57
63088;BME280;49173;43.164;27.786;2023-07-28T00:49:58;100352.78;;;17.05;86.47
63088;BME280;49173;43.164;27.786;2023-07-28T00:52:24;100361.81;;;17.06;86.88
63088;BME280;49173;43.164;27.786;2023-07-28T00:54:49;100360.19;;;17.03;86.64
63088;BME280;49173;43.164;27.786;2023-07-28T00:57:15;100359.19;;;17.04;86.96
63088;BME280;49173;43.164;27.786;2023-07-28T00:59:45;100364.03;;;17.00;86.91
63088;BME280;49173;43.164;27.786;2023-07-28T01:08:06;100364.66;;;16.82;86.58
63088;BME280;49173;43.164;27.786;2023-07-28T01:10:35;100369.47;;;16.78;86.98
63088;BME280;49173;43.164;27.786;2023-07-28T01:13:01;100369.69;;;16.75;87.09
63088;BME280;49173;43.164;27.786;2023-07-28T01:15:28;100364.16;;;16.77;87.18
63088;BME280;49173;43.164;27.786;2023-07-28T01:17:54;100358.72;;;16.77;87.02
63088;BME280;49173;43.164;27.786;2023-07-28T01:20:22;100364.06;;;16.78;87.60
63088;BME280;49173;43.164;27.786;2023-07-28T01:23:13;100364.91;;;16.79;87.70
63088;BME280;49173;43.164;27.786;2023-07-28T01:28:17;100365.91;;;16.78;87.29
63088;BME280;49173;43.164;27.786;2023-07-28T01:30:45;100368.13;;;16.72;87.52
63088;BME280;49173;43.164;27.786;2023-07-28T01:33:10;100371.31;;;16.78;87.37
63088;BME280;49173;43.164;27.786;2023-07-28T01:35:37;100372.06;;;16.80;87.26
63088;BME280;49173;43.164;27.786;2023-07-28T01:38:06;100375.97;;;16.75;87.25
63088;BME280;49173;43.164;27.786;2023-07-28T01:40:33;100363.69;;;16.71;87.19
63088;BME280;49173;43.164;27.786;2023-07-28T01:42:59;100372.81;;;16.70;87.26
63088;BME280;49173;43.164;27.786;2023-07-28T01:45:25;100378.22;;;16.70;87.19
63088;BME280;49173;43.164;27.786;2023-07-28T01:47:51;100375.50;;;16.70;87.42
63088;BME280;49173;43.164;27.786;2023-07-28T01:50:17;100376.25;;;16.72;87.08
63088;BME280;49173;43.164;27.786;2023-07-28T01:52:43;100384.38;;;16.72;87.06
63088;BME280;49173;43.164;27.786;2023-07-28T01:55:09;100379.94;;;16.71;86.95
63088;BME280;49173;43.164;27.786;2023-07-28T01:57:38;100384.50;;;16.71;86.78
63088;BME280;49173;43.164;27.786;2023-07-28T02:00:05;100386.81;;;16.64;86.29
63088;BME280;49173;43.164;27.786;2023-07-28T02:02:31;100387.28;;;16.58;86.13
63088;BME280;49173;43.164;27.786;2023-07-28T02:04:58;100381.13;;;16.56;86.01
63088;BME280;49173;43.164;27.786;2023-07-28T02:07:23;100384.94;;;16.54;86.15
63088;BME280;49173;43.164;27.786;2023-07-28T02:09:49;100390.63;;;16.51;86.32
63088;BME280;49173;43.164;27.786;2023-07-28T02:12:15;100401.53;;;16.49;86.30
63088;BME280;49173;43.164;27.786;2023-07-28T02:14:41;100398.34;;;16.44;86.58
63088;BME280;49173;43.164;27.786;2023-07-28T02:17:06;100398.09;;;16.47;86.38
63088;BME280;49173;43.164;27.786;2023-07-28T02:19:32;100408.09;;;16.46;86.53
63088;BME280;49173;43.164;27.786;2023-07-28T02:22:00;100401.69;;;16.47;86.07
63088;BME280;49173;43.164;27.786;2023-07-28T02:24:26;100404.50;;;16.46;85.75
63088;BME280;49173;43.164;27.786;2023-07-28T02:26:51;100407.69;;;16.40;85.88
63088;BME280;49173;43.164;27.786;2023-07-28T02:29:20;100407.81;;;16.38;85.95
63088;BME280;49173;43.164;27.786;2023-07-28T02:31:45;100411.41;;;16.39;86.02
63088;BME280;49173;43.164;27.786;2023-07-28T02:34:11;100407.69;;;16.40;85.84
63088;BME280;49173;43.164;27.786;2023-07-28T02:36:37;100410.53;;;16.38;85.85
63088;BME280;49173;43.164;27.786;2023-07-28T02:39:03;100416.09;;;16.37;85.70
63088;BME280;49173;43.164;27.786;2023-07-28T02:41:29;100417.06;;;16.36;86.00
63088;BME280;49173;43.164;27.786;2023-07-28T02:43:55;100413.13;;;16.29;86.40
63088;BME280;49173;43.164;27.786;2023-07-28T02:46:21;100422.72;;;16.33;86.55
63088;BME280;49173;43.164;27.786;2023-07-28T02:48:46;100416.94;;;16.37;86.12
63088;BME280;49173;43.164;27.786;2023-07-28T02:51:12;100424.09;;;16.38;85.62
63088;BME280;49173;43.164;27.786;2023-07-28T02:53:38;100417.16;;;16.34;85.06
63088;BME280;49173;43.164;27.786;2023-07-28T02:56:03;100416.69;;;16.29;85.14
63088;BME280;49173;43.164;27.786;2023-07-28T02:58:29;100421.94;;;16.19;84.93
63088;BME280;49173;43.164;27.786;2023-07-28T03:00:55;100427.59;;;16.16;84.87
63088;BME280;49173;43.164;27.786;2023-07-28T03:03:21;100429.31;;;16.17;85.13
63088;BME280;49173;43.164;27.786;2023-07-28T03:05:52;100434.47;;;16.20;85.48
63088;BME280;49173;43.164;27.786;2023-07-28T03:08:18;100434.72;;;16.17;85.98
63088;BME280;49173;43.164;27.786;2023-07-28T03:10:44;100436.25;;;16.22;86.43
63088;BME280;49173;43.164;27.786;2023-07-28T03:13:10;100438.69;;;16.25;86.66
63088;BME280;49173;43.164;27.786;2023-07-28T03:15:36;100435.63;;;16.29;86.47
63088;BME280;49173;43.164;27.786;2023-07-28T03:18:02;100441.28;;;16.26;86.05
63088;BME280;49173;43.164;27.786;2023-07-28T03:20:28;100454.81;;;16.26;85.53
63088;BME280;49173;43.164;27.786;2023-07-28T03:22:54;100453.97;;;16.26;85.40
63088;BME280;49173;43.164;27.786;2023-07-28T03:25:21;100454.81;;;16.26;85.60
63088;BME280;49173;43.164;27.786;2023-07-28T03:27:47;100455.94;;;16.24;85.92
63088;BME280;49173;43.164;27.786;2023-07-28T03:30:13;100456.44;;;16.29;85.96
63088;BME280;49173;43.164;27.786;2023-07-28T03:32:39;100467.16;;;16.30;85.72
63088;BME280;49173;43.164;27.786;2023-07-28T03:35:06;100470.84;;;16.29;86.28
63088;BME280;49173;43.164;27.786;2023-07-28T03:37:33;100478.84;;;16.31;86.69
63088;BME280;49173;43.164;27.786;2023-07-28T03:39:59;100479.47;;;16.34;86.89
63088;BME280;49173;43.164;27.786;2023-07-28T03:42:26;100475.66;;;16.37;87.07
63088;BME280;49173;43.164;27.786;2023-07-28T03:44:52;100476.28;;;16.40;87.52
63088;BME280;49173;43.164;27.786;2023-07-28T03:47:19;100469.19;;;16.51;88.26
63088;BME280;49173;43.164;27.786;2023-07-28T03:49:49;100484.09;;;16.56;88.21
63088;BME280;49173;43.164;27.786;2023-07-28T03:52:14;100479.53;;;16.57;88.56
63088;BME280;49173;43.164;27.786;2023-07-28T03:54:40;100481.66;;;16.64;88.58
63088;BME280;49173;43.164;27.786;2023-07-28T03:57:06;100484.13;;;16.67;88.68
63088;BME280;49173;43.164;27.786;2023-07-28T03:59:32;100481.66;;;16.64;nan
63088;BME280;49173;43.164;27.786;2023-07-28T04:01:58;100484.88;;;16.69;89.05
63088;BME280;49173;43.164;27.786;2023-07-28T04:04:23;100493.78;;;16.71;89.31
63088;BME280;49173;43.164;27.786;2023-07-28T04:06:49;100499.66;;;16.77;89.50
63088;BME280;49173;43.164;27.786;2023-07-28T04:09:16;100497.47;;;16.82;89.57
63088;BME280;49173;43.164;27.786;2023-07-28T04:11:42;100502.16;;;16.91;89.54
63088;BME280;49173;43.164;27.786;2023-07-28T04:14:08;100505.25;;;16.97;89.76
63088;BME280;49173;43.164;27.786;2023-07-28T04:16:34;100506.00;;;17.11;89.91
63088;BME280;49173;43.164;27.786;2023-07-28T04:19:00;100510.94;;;17.28;90.05
63088;BME280;49173;43.164;27.786;2023-07-28T04:21:26;100511.28;;;17.46;89.65
63088;BME280;49173;43.164;27.786;2023-07-28T04:23:52;100512.38;;;17.66;90.01
63088;BME280;49173;43.164;27.786;2023-07-28T04:26:18;100518.91;;;17.86;89.58
63088;BME280;49173;43.164;27.786;2023-07-28T04:28:44;100525.50;;;18.04;88.71
63088;BME280;49173;43.164;27.786;2023-07-28T04:31:11;100525.97;;;18.20;87.75
63088;BME280;49173;43.164;27.786;2023-07-28T04:33:38;100522.97;;;18.34;86.53
63088;BME280;49173;43.164;27.786;2023-07-28T04:36:06;100522.53;;;18.39;84.56
63088;BME280;49173;43.164;27.786;2023-07-28T04:38:48;100520.13;;;18.57;85.69
63088;BME280;49173;43.164;27.786;2023-07-28T04:41:14;100520.81;;;18.70;84.71
63088;BME280;49173;43.164;27.786;2023-07-28T04:43:40;100518.25;;;18.89;84.99
63088;BME280;49173;43.164;27.786;2023-07-28T04:46:06;100514.41;;;19.02;83.50
63088;BME280;49173;43.164;27.786;2023-07-28T04:48:32;100513.09;;;19.17;82.81
63088;BME280;49173;43.164;27.786;2023-07-28T04:50:57;100521.16;;;19.28;81.43
63088;BME280;49173;43.164;27.786;2023-07-28T04:53:23;100518.19;;;19.41;78.29
63088;BME280;49173;43.164;27.786;2023-07-28T04:55:49;100518.06;;;19.52;77.74
63088;BME280;49173;43.164;27.786;2023-07-28T04:58:15;100518.72;;;19.65;76.70
63088;BME280;49173;43.164;27.786;2023-07-28T05:00:41;100528.38;;;19.79;77.96
63088;BME280;49173;43.164;27.786;2023-07-28T05:03:06;100521.50;;;19.85;77.47
63088;BME280;49173;43.164;27.786;2023-07-28T05:05:36;100519.94;;;19.92;77.59
63088;BME280;49173;43.164;27.786;2023-07-28T05:08:07;100519.09;;;20.01;76.65
63088;BME280;49173;43.164;27.786;2023-07-28T05:10:37;100515.97;;;20.06;76.80
63088;BME280;49173;43.164;27.786;2023-07-28T05:13:03;100522.00;;;20.09;76.54
63088;BME280;49173;43.164;27.786;2023-07-28T05:15:34;100518.69;;;20.15;76.50
63088;BME280;49173;43.164;27.786;2023-07-28T05:18:02;100526.28;;;20.21;75.37
63088;BME280;49173;43.164;27.786;2023-07-28T05:20:31;100526.03;;;20.24;74.87
63088;BME280;49173;43.164;27.786;2023-07-28T05:23:00;100531.78;;;20.31;75.18
63088;BME280;49173;43.164;27.786;2023-07-28T05:25:29;100522.00;;;20.38;73.88
63088;BME280;49173;43.164;27.786;2023-07-28T05:27:56;100508.69;;;20.45;73.12
63088;BME280;49173;43.164;27.786;2023-07-28T05:30:27;100509.09;;;20.50;72.63
63088;BME280;49173;43.164;27.786;2023-07-28T05:32:56;100512.28;;;20.55;72.09
63088;BME280;49173;43.164;27.786;2023-07-28T05:35:24;100521.31;;;20.65;72.61
63088;BME280;49173;43.164;27.786;2023-07-28T05:37:50;100530.63;;;20.72;72.66
63088;BME280;49173;43.164;27.786;2023-07-28T05:40:19;100524.56;;;20.78;70.90
63088;BME280;49173;43.164;27.786;2023-07-28T05:42:48;100519.41;;;20.85;70.37
63088;BME280;49173;43.164;27.786;2023-07-28T05:45:14;100512.22;;;20.94;68.72
63088;BME280;49173;43.164;27.786;2023-07-28T05:47:44;100517.06;;;21.00;68.45
63088;BME280;49173;43.164;27.786;2023-07-28T05:50:16;100513.91;;;21.04;68.24
63088;BME280;49173;43.164;27.786;2023-07-28T05:52:48;100504.41;;;21.08;67.45
63088;BME280;49173;43.164;27.786;2023-07-28T05:55:14;100498.66;;;21.11;67.92
63088;BME280;49173;43.164;27.786;2023-07-28T05:57:44;100500.09;;;21.16;68.02
63088;BME280;49173;43.164;27.786;2023-07-28T06:00:13;100504.63;;;21.25;68.62
63088;BME280;49173;43.164;27.786;2023-07-28T06:02:41;100494.16;;;21.30;67.73
63088;BME280;49173;43.164;27.786;2023-07-28T06:05:08;100496.59;;;21.33;67.38
63088;BME280;49173;43.164;27.786;2023-07-28T06:07:40;100496.00;;;21.39;67.32
63088;BME280;49173;43.164;27.786;2023-07-28T06:10:07;100496.78;;;21.49;68.13
63088;BME280;49173;43.164;27.786;2023-07-28T06:12:37;100493.00;;;21.60;68.78
63088;BME280;49173;43.164;27.786;2023-07-28T06:15:06;100490.22;;;21.70;66.65
63088;BME280;49173;43.164;27.786;2023-07-28T06:17:32;100494.06;;;21.77;66.32
63088;BME280;49173;43.164;27.786;2023-07-28T06:19:59;100500.50;;;21.85;66.96
63088;BME280;49173;43.164;27.786;2023-07-28T06:22:33;100490.78;;;21.91;65.90
63088;BME280;49173;43.164;27.786;2023-07-28T06:24:59;100500.09;;;21.98;65.56
63088;BME280;49173;43.164;27.786;2023-07-28T06:27:34;100504.78;;;22.06;65.47
63088;BME280;49173;43.164;27.786;2023-07-28T06:30:10;100504.19;;;22.12;66.26
63088;BME280;49173;43.164;27.786;2023-07-28T06:32:42;100509.44;;;22.23;66.33
63088;BME280;49173;43.164;27.786;2023-07-28T06:35:14;100496.88;;;22.30;65.10
63088;BME280;49173;43.164;27.786;2023-07-28T06:37:46;100502.56;;;22.37;65.59
63088;BME280;49173;43.164;27.786;2023-07-28T06:40:15;100508.44;;;22.42;65.90
63088;BME280;49173;43.164;27.786;2023-07-28T06:42:44;100500.47;;;22.48;64.67
63088;BME280;49173;43.164;27.786;2023-07-28T06:45:14;100506.13;;;22.55;64.85
63088;BME280;49173;43.164;27.786;2023-07-28T06:47:48;100519.19;;;22.61;64.65
63088;BME280;49173;43.164;27.786;2023-07-28T06:50:15;100523.41;;;22.73;65.41
63088;BME280;49173;43.164;27.786;2023-07-28T06:52:46;100523.28;;;22.83;64.53
63088;BME280;49173;43.164;27.786;2023-07-28T06:55:18;100521.19;;;22.95;64.26
63088;BME280;49173;43.164;27.786;2023-07-28T06:57:47;100520.94;;;23.06;63.15
63088;BME280;49173;43.164;27.786;2023-07-28T07:00:18;100529.03;;;23.16;61.98
63088;BME280;49173;43.164;27.786;2023-07-28T07:02:51;100528.06;;;23.25;63.10
63088;BME280;49173;43.164;27.786;2023-07-28T07:05:17;100534.13;;;23.37;61.71
63088;BME280;49173;43.164;27.786;2023-07-28T07:07:45;100529.06;;;23.50;61.26
63088;BME280;49173;43.164;27.786;2023-07-28T07:10:13;100532.91;;;23.65;61.31
63088;BME280;49173;43.164;27.786;2023-07-28T07:12:43;100540.69;;;23.78;60.83
63088;BME280;49173;43.164;27.786;2023-07-28T07:15:15;100536.75;;;23.89;59.92
63088;BME280;49173;43.164;27.786;2023-07-28T07:17:45;100545.38;;;24.02;59.09
63088;BME280;49173;43.164;27.786;2023-07-28T07:20:14;100541.97;;;24.08;58.62
63088;BME280;49173;43.164;27.786;2023-07-28T07:22:46;100543.38;;;24.20;58.82
63088;BME280;49173;43.164;27.786;2023-07-28T07:25:16;100544.94;;;24.31;58.12
63088;BME280;49173;43.164;27.786;2023-07-28T07:27:43;100544.81;;;24.41;58.31
63088;BME280;49173;43.164;27.786;2023-07-28T07:30:12;100543.28;;;24.46;55.88
63088;BME280;49173;43.164;27.786;2023-07-28T07:32:41;100549.97;;;24.52;56.02
63088;BME280;49173;43.164;27.786;2023-07-28T07:35:11;100543.63;;;24.59;55.64
63088;BME280;49173;43.164;27.786;2023-07-28T07:37:41;100544.84;;;24.65;54.81
63088;BME280;49173;43.164;27.786;2023-07-28T07:40:12;100541.91;;;24.66;54.10
63088;BME280;49173;43.164;27.786;2023-07-28T07:42:51;100547.25;;;24.68;54.40
63088;BME280;49173;43.164;27.786;2023-07-28T07:45:19;100541.75;;;24.76;53.17
63088;BME280;49173;43.164;27.786;2023-07-28T07:47:47;100540.91;;;24.84;53.03
63088;BME280;49173;43.164;27.786;2023-07-28T07:50:16;100545.34;;;24.93;52.66
63088;BME280;49173;43.164;27.786;2023-07-28T07:52:46;100538.47;;;24.97;51.89
63088;BME280;49173;43.164;27.786;2023-07-28T07:55:18;100532.44;;;25.02;53.22
63088;BME280;49173;43.164;27.786;2023-07-28T07:57:48;100541.75;;;25.09;53.83
63088;BME280;49173;43.164;27.786;2023-07-28T08:00:15;100530.06;;;25.15;53.55
63088;BME280;49173;43.164;27.786;2023-07-28T08:02:45;100528.84;;;25.26;53.05
63088;BME280;49173;43.164;27.786;2023-07-28T08:05:12;100525.59;;;25.30;52.74
63088;BME280;49173;43.164;27.786;2023-07-28T08:07:41;100518.69;;;25.34;51.64
63088;BME280;49173;43.164;27.786;2023-07-28T08:10:10;100521.78;;;25.39;52.41
63088;BME280;49173;43.164;27.786;2023-07-28T08:12:39;100527.25;;;25.47;51.71
63088;BME280;49173;43.164;27.786;2023-07-28T08:15:10;100519.66;;;25.50;49.86
63088;BME280;49173;43.164;27.786;2023-07-28T08:17:41;100525.16;;;25.50;49.44
63088;BME280;49173;43.164;27.786;2023-07-28T08:20:12;100528.63;;;25.52;50.91
63088;BME280;49173;43.164;27.786;2023-07-28T08:22:48;100522.94;;;25.53;49.55
63088;BME280;49173;43.164;27.786;2023-07-28T08:25:18;100523.41;;;25.57;48.89
63088;BME280;49173;43.164;27.786;2023-07-28T08:27:46;100518.78;;;25.57;47.87
63088;BME280;49173;43.164;27.786;2023-07-28T08:30:16;100517.41;;;25.61;48.14
63088;BME280;49173;43.164;27.786;2023-07-28T08:32:43;100507.25;;;25.62;47.71
63088;BME280;49173;43.164;27.786;2023-07-28T08:35:10;100515.47;;;25.70;50.00
63088;BME280;49173;43.164;27.786;2023-07-28T08:37:39;100518.56;;;25.75;50.58
63088;BME280;49173;43.164;27.786;2023-07-28T08:40:08;100519.06;;;25.79;50.96
63088;BME280;49173;43.164;27.786;2023-07-28T08:42:37;100513.94;;;25.76;51.18
63088;BME280;49173;43.164;27.786;2023-07-28T08:45:07;100514.44;;;25.71;50.31
63088;BME280;49173;43.164;27.786;2023-07-28T08:47:40;100509.66;;;25.73;50.59
63088;BME280;49173;43.164;27.786;2023-07-28T08:50:10;100519.06;;;25.79;51.17
63088;BME280;49173;43.164;27.786;2023-07-28T08:52:37;100512.00;;;25.84;50.97
63088;BME280;49173;43.164;27.786;2023-07-28T08:55:09;100502.03;;;25.83;48.17
63088;BME280;49173;43.164;27.786;2023-07-28T08:57:35;100503.31;;;25.72;46.26
63088;BME280;49173;43.164;27.786;2023-07-28T09:00:14;100506.06;;;25.72;47.72
63088;BME280;49173;43.164;27.786;2023-07-28T09:02:44;100503.41;;;25.79;49.56
63088;BME280;49173;43.164;27.786;2023-07-28T09:05:21;100498.25;;;25.84;48.49
63088;BME280;49173;43.164;27.786;2023-07-28T09:07:49;100505.78;;;25.90;48.48
63088;BME280;49173;43.164;27.786;2023-07-28T09:10:19;100502.13;;;25.98;49.56
63088;BME280;49173;43.164;27.786;2023-07-28T09:12:50;100507.75;;;26.05;47.63
63088;BME280;49173;43.164;27.786;2023-07-28T09:15:19;100504.66;;;26.08;47.72
63088;BME280;49173;43.164;27.786;2023-07-28T09:17:47;100503.44;;;26.10;46.85
63088;BME280;49173;43.164;27.786;2023-07-28T09:20:19;100498.78;;;26.11;45.94
63088;BME280;49173;43.164;27.786;2023-07-28T09:22:50;100499.44;;;26.13;44.55
63088;BME280;49173;43.164;27.786;2023-07-28T09:25:22;100504.88;;;26.21;46.34
63088;BME280;49173;43.164;27.786;2023-07-28T09:27:53;100494.63;;;26.15;45.33
63088;BME280;49173;43.164;27.786;2023-07-28T09:30:20;100485.28;;;26.01;43.92
63088;BME280;49173;43.164;27.786;2023-07-28T09:32:49;100493.34;;;26.02;44.03
63088;BME280;49173;43.164;27.786;2023-07-28T09:35:22;100491.44;;;26.03;42.39
63088;BME280;49173;43.164;27.786;2023-07-28T09:37:53;100491.06;;;26.06;42.33
63088;BME280;49173;43.164;27.786;2023-07-28T09:40:26;100482.75;;;26.14;42.02
63088;BME280;49173;43.164;27.786;2023-07-28T09:42:57;100480.75;;;26.31;44.33
63088;BME280;49173;43.164;27.786;2023-07-28T09:45:29;100480.72;;;26.39;45.18
63088;BME280;49173;43.164;27.786;2023-07-28T09:48:08;100482.75;;;26.45;43.41
63088;BME280;49173;43.164;27.786;2023-07-28T09:50:40;100476.97;;;26.55;42.86
63088;BME280;49173;43.164;27.786;2023-07-28T09:53:10;100483.44;;;26.62;42.78
63088;BME280;49173;43.164;27.786;2023-07-28T09:55:42;100479.41;;;26.73;41.47
63088;BME280;49173;43.164;27.786;2023-07-28T09:58:10;100483.03;;;26.88;43.10
63088;BME280;49173;43.164;27.786;2023-07-28T10:00:41;100476.97;;;26.93;40.82
63088;BME280;49173;43.164;27.786;2023-07-28T10:03:14;100470.03;;;26.97;40.48
63088;BME280;49173;43.164;27.786;2023-07-28T10:05:44;100464.47;;;27.05;40.72
63088;BME280;49173;43.164;27.786;2023-07-28T10:08:11;100475.88;;;27.17;41.34
63088;BME280;49173;43.164;27.786;2023-07-28T10:10:40;100464.94;;;27.23;39.01
63088;BME280;49173;43.164;27.786;2023-07-28T10:13:22;100464.19;;;27.29;39.74
63088;BME280;49173;43.164;27.786;2023-07-28T10:15:51;100458.78;;;27.36;39.10
63088;BME280;49173;43.164;27.786;2023-07-28T10:18:23;100450.59;;;27.43;39.57
63088;BME280;49173;43.164;27.786;2023-07-28T10:23:37;100446.84;;;27.65;36.27
63088;BME280;49173;43.164;27.786;2023-07-28T10:26:07;100452.47;;;27.72;36.18
63088;BME280;49173;43.164;27.786;2023-07-28T10:28:42;100447.41;;;27.75;37.02
63088;BME280;49173;43.164;27.786;2023-07-28T10:31:13;100449.28;;;27.89;37.70
63088;BME280;49173;43.164;27.786;2023-07-28T10:33:45;100437.66;;;27.94;37.41
63088;BME280;49173;43.164;27.786;2023-07-28T10:36:33;100435.34;;;27.98;37.44
63088;BME280;49173;43.164;27.786;2023-07-28T10:39:12;100428.41;;;28.02;37.22
63088;BME280;49173;43.164;27.786;2023-07-28T10:44:27;100423.22;;;28.13;36.19
63088;BME280;49173;43.164;27.786;2023-07-28T10:47:07;100415.81;;;28.14;34.39
63088;BME280;49173;43.164;27.786;2023-07-28T10:49:34;100419.28;;;28.23;35.76
63088;BME280;49173;43.164;27.786;2023-07-28T10:52:05;100416.41;;;28.31;36.11
63088;BME280;49173;43.164;27.786;2023-07-28T10:54:34;100411.16;;;28.36;36.08
63088;BME280;49173;43.164;27.786;2023-07-28T10:57:04;100412.91;;;28.43;35.31
63088;BME280;49173;43.164;27.786;2023-07-28T10:59:35;100410.25;;;28.57;36.22
63088;BME280;49173;43.164;27.786;2023-07-28T11:02:04;100396.56;;;28.70;34.48
63088;BME280;49173;43.164;27.786;2023-07-28T11:04:33;100399.59;;;28.82;35.10
63088;BME280;49173;43.164;27.786;2023-07-28T11:07:02;100394.97;;;28.89;34.34
63088;BME280;49173;43.164;27.786;2023-07-28T11:09:30;100387.16;;;28.92;33.80
63088;BME280;49173;43.164;27.786;2023-07-28T11:12:01;100390.38;;;28.96;33.93
63088;BME280;49173;43.164;27.786;2023-07-28T11:14:30;100394.28;;;29.08;34.93
63088;BME280;49173;43.164;27.786;2023-07-28T11:17:00;100388.19;;;29.19;34.94
63088;BME280;49173;43.164;27.786;2023-07-28T11:19:29;100384.59;;;29.25;34.53
63088;BME280;49173;43.164;27.786;2023-07-28T11:21:58;100391.66;;;29.35;34.90
63088;BME280;49173;43.164;27.786;2023-07-28T11:24:24;100391.69;;;29.41;35.05
63088;BME280;49173;43.164;27.786;2023-07-28T11:26:54;100375.50;;;29.45;33.67
63088;BME280;49173;43.164;27.786;2023-07-28T11:29:29;100376.81;;;29.49;33.31
63088;BME280;49173;43.164;27.786;2023-07-28T11:31:56;100381.34;;;29.57;34.68
63088;BME280;49173;43.164;27.786;2023-07-28T11:34:27;100383.06;;;29.64;34.71
63088;BME280;49173;43.164;27.786;2023-07-28T11:37:12;100381.16;;;29.71;34.44
63088;BME280;49173;43.164;27.786;2023-07-28T11:39:39;100383.53;;;29.74;33.99
63088;BME280;49173;43.164;27.786;2023-07-28T11:42:09;100374.59;;;29.79;33.91
63088;BME280;49173;43.164;27.786;2023-07-28T11:44:42;100368.63;;;29.75;32.96
63088;BME280;49173;43.164;27.786;2023-07-28T11:47:19;100357.97;;;29.79;32.96
63088;BME280;49173;43.164;27.786;2023-07-28T11:49:48;100346.28;;;29.84;34.04
63088;BME280;49173;43.164;27.786;2023-07-28T11:52:18;100356.53;;;29.90;33.82
63088;BME280;49173;43.164;27.786;2023-07-28T11:54:48;100352.69;;;29.91;33.16
63088;BME280;49173;43.164;27.786;2023-07-28T11:57:18;100352.91;;;29.96;33.68
63088;BME280;49173;43.164;27.786;2023-07-28T11:59:44;100352.50;;;30.05;33.27
63088;BME280;49173;43.164;27.786;2023-07-28T12:02:11;100350.16;;;30.09;31.86
63088;BME280;49173;43.164;27.786;2023-07-28T12:04:42;100344.22;;;30.19;32.68
63088;BME280;49173;43.164;27.786;2023-07-28T12:07:17;100337.84;;;30.25;32.24
63088;BME280;49173;43.164;27.786;2023-07-28T12:12:19;100336.09;;;30.37;30.09
63088;BME280;49173;43.164;27.786;2023-07-28T12:14:53;100328.88;;;30.43;30.53
63088;BME280;49173;43.164;27.786;2023-07-28T12:17:28;100320.97;;;30.59;31.33
63088;BME280;49173;43.164;27.786;2023-07-28T12:20:13;100334.59;;;30.74;31.70
63088;BME280;49173;43.164;27.786;2023-07-28T12:22:43;100323.50;;;30.81;31.39
63088;BME280;49173;43.164;27.786;2023-07-28T12:25:15;100323.69;;;30.86;32.06
63088;BME280;49173;43.164;27.786;2023-07-28T12:27:42;100337.97;;;30.96;32.09
63088;BME280;49173;43.164;27.786;2023-07-28T12:30:11;100319.59;;;31.02;31.26
63088;BME280;49173;43.164;27.786;2023-07-28T12:32:38;100330.44;;;31.10;31.07
63088;BME280;49173;43.164;27.786;2023-07-28T12:35:08;100324.88;;;31.23;30.99
63088;BME280;49173;43.164;27.786;2023-07-28T12:37:34;100323.34;;;31.27;30.95
63088;BME280;49173;43.164;27.786;2023-07-28T12:40:05;100318.66;;;31.28;29.92
63088;BME280;49173;43.164;27.786;2023-07-28T12:42:40;100305.63;;;31.22;28.63
63088;BME280;49173;43.164;27.786;2023-07-28T12:45:09;100311.41;;;31.20;27.32
63088;BME280;49173;43.164;27.786;2023-07-28T12:47:36;100315.50;;;31.11;26.75
63088;BME280;49173;43.164;27.786;2023-07-28T12:50:07;100305.75;;;31.02;27.16
63088;BME280;49173;43.164;27.786;2023-07-28T12:52:46;100307.25;;;30.98;30.91
63088;BME280;49173;43.164;27.786;2023-07-28T12:55:19;100304.66;;;31.03;33.02
63088;BME280;49173;43.164;27.786;2023-07-28T12:57:48;100296.50;;;31.14;32.75
63088;BME280;49173;43.164;27.786;2023-07-28T13:00:20;100296.72;;;31.13;33.93
63088;BME280;49173;43.164;27.786;2023-07-28T13:02:50;100286.97;;;30.97;33.99
63088;BME280;49173;43.164;27.786;2023-07-28T13:05:16;100275.06;;;30.97;35.34